sensor_id;sensor_type;location;lat;lon;timestamp;pressure;altitude;pressure_sealevel;temperature
50206;BMP280;36098;48.390;10.856;2023-09-08T00:02:07;96367.19;;;25.50
50206;BMP280;36098;48.390;10.856;2023-09-08T00:04:33;96365.94;;;25.43
50206;BMP280;36098;48.390;10.856;2023-09-08T00:06:58;96365.69;;;25.39
50206;BMP280;36098;48.390;10.856;2023-09-08T00:09:24;96365.13;;;25.42
50206;BMP280;36098;48.390;10.856;2023-09-08T00:11:49;96366.97;;;25.47
50206;BMP280;36098;48.390;10.856;2023-09-08T00:14:14;96372.56;;;25.40
50206;BMP280;36098;48.390;10.856;2023-09-08T00:16:40;96371.28;;;25.33
50206;BMP280;36098;48.390;10.856;2023-09-08T00:19:08;96365.44;;;25.41
50206;BMP280;36098;48.390;10.856;2023-09-08T00:21:33;96369.16;;;25.40
50206;BMP280;36098;48.390;10.856;2023-09-08T00:23:58;96367.53;;;25.44
50206;BMP280;36098;48.390;10.856;2023-09-08T00:26:24;96369.91;;;25.40
50206;BMP280;36098;48.390;10.856;2023-09-08T00:28:49;96365.47;;;25.36
50206;BMP280;36098;48.390;10.856;2023-09-08T00:31:15;96367.06;;;25.32
50206;BMP280;36098;48.390;10.856;2023-09-08T00:33:40;96369.97;;;25.35
50206;BMP280;36098;48.390;10.856;2023-09-08T00:36:07;96369.09;;;25.45
50206;BMP280;36098;48.390;10.856;2023-09-08T00:38:32;96367.53;;;25.44
50206;BMP280;36098;48.390;10.856;2023-09-08T00:40:58;96363.03;;;25.44
50206;BMP280;36098;48.390;10.856;2023-09-08T00:43:25;96360.69;;;25.38
50206;BMP280;36098;48.390;10.856;2023-09-08T00:45:51;96358.06;;;25.38
50206;BMP280;36098;48.390;10.856;2023-09-08T00:48:18;96357.00;;;25.39
50206;BMP280;36098;48.390;10.856;2023-09-08T00:50:44;96357.00;;;25.39
50206;BMP280;36098;48.390;10.856;2023-09-08T00:53:10;96361.22;;;25.40
50206;BMP280;36098;48.390;10.856;2023-09-08T00:55:35;96358.00;;;25.43
50206;BMP280;36098;48.390;10.856;2023-09-08T00:58:01;96357.97;;;25.48
50206;BMP280;36098;48.390;10.856;2023-09-08T01:00:27;96354.25;;;25.49
50206;BMP280;36098;48.390;10.856;2023-09-08T01:02:52;96351.66;;;25.44
50206;BMP280;36098;48.390;10.856;2023-09-08T01:05:18;96347.47;;;25.38
50206;BMP280;36098;48.390;10.856;2023-09-08T01:07:44;96357.56;;;25.36
50206;BMP280;36098;48.390;10.856;2023-09-08T01:10:10;96352.06;;;25.27
50206;BMP280;36098;48.390;10.856;2023-09-08T01:12:36;96345.41;;;25.30
50206;BMP280;36098;48.390;10.856;2023-09-08T01:15:02;96353.09;;;25.31
50206;BMP280;36098;48.390;10.856;2023-09-08T01:17:27;96346.69;;;25.37
50206;BMP280;36098;48.390;10.856;2023-09-08T01:19:55;96353.28;;;25.40
50206;BMP280;36098;48.390;10.856;2023-09-08T01:25:23;96351.22;;;25.32
50206;BMP280;36098;48.390;10.856;2023-09-08T01:27:53;96348.88;;;25.30
50206;BMP280;36098;48.390;10.856;2023-09-08T01:30:21;96358.13;;;25.28
50206;BMP280;36098;48.390;10.856;2023-09-08T01:32:47;96347.81;;;25.31
50206;BMP280;36098;48.390;10.856;2023-09-08T01:35:13;96346.22;;;25.30
50206;BMP280;36098;48.390;10.856;2023-09-08T01:37:44;96348.09;;;25.25
50206;BMP280;36098;48.390;10.856;2023-09-08T01:40:10;96342.81;;;25.25
50206;BMP280;36098;48.390;10.856;2023-09-08T01:42:36;96333.88;;;25.21
50206;BMP280;36098;48.390;10.856;2023-09-08T01:45:02;96338.38;;;25.15
50206;BMP280;36098;48.390;10.856;2023-09-08T01:47:29;96339.19;;;25.16
50206;BMP280;36098;48.390;10.856;2023-09-08T01:49:54;96336.25;;;25.17
50206;BMP280;36098;48.390;10.856;2023-09-08T01:52:20;96335.19;;;25.23
50206;BMP280;36098;48.390;10.856;2023-09-08T01:54:45;96333.91;;;25.16
50206;BMP280;36098;48.390;10.856;2023-09-08T01:57:10;96342.88;;;25.20
50206;BMP280;36098;48.390;10.856;2023-09-08T01:59:35;96340.75;;;25.17
50206;BMP280;36098;48.390;10.856;2023-09-08T02:02:02;96340.25;;;25.15
50206;BMP280;36098;48.390;10.856;2023-09-08T02:04:28;96336.56;;;25.11
50206;BMP280;36098;48.390;10.856;2023-09-08T02:06:53;96333.38;;;25.19
50206;BMP280;36098;48.390;10.856;2023-09-08T02:09:19;96330.75;;;25.14
50206;BMP280;36098;48.390;10.856;2023-09-08T02:11:44;96334.44;;;25.18
50206;BMP280;36098;48.390;10.856;2023-09-08T02:14:09;96328.09;;;25.19
50206;BMP280;36098;48.390;10.856;2023-09-08T02:16:34;96334.41;;;25.13
50206;BMP280;36098;48.390;10.856;2023-09-08T02:19:00;96330.75;;;25.14
50206;BMP280;36098;48.390;10.856;2023-09-08T02:21:25;96333.66;;;25.13
50206;BMP280;36098;48.390;10.856;2023-09-08T02:23:50;96331.25;;;25.16
50206;BMP280;36098;48.390;10.856;2023-09-08T02:26:15;96339.19;;;25.16
50206;BMP280;36098;48.390;10.856;2023-09-08T02:28:41;96338.34;;;25.20
50206;BMP280;36098;48.390;10.856;2023-09-08T02:31:06;96337.06;;;25.18
50206;BMP280;36098;48.390;10.856;2023-09-08T02:33:31;96330.75;;;25.14
50206;BMP280;36098;48.390;10.856;2023-09-08T02:36:04;96336.78;;;25.14
50206;BMP280;36098;48.390;10.856;2023-09-08T02:38:30;96335.50;;;25.12
50206;BMP280;36098;48.390;10.856;2023-09-08T02:40:55;96329.13;;;25.13
50206;BMP280;36098;48.390;10.856;2023-09-08T02:43:21;96329.13;;;25.13
50206;BMP280;36098;48.390;10.856;2023-09-08T02:45:47;96332.31;;;25.15
50206;BMP280;36098;48.390;10.856;2023-09-08T02:48:12;96334.41;;;25.13
50206;BMP280;36098;48.390;10.856;2023-09-08T02:50:37;96338.13;;;25.12
50206;BMP280;36098;48.390;10.856;2023-09-08T02:53:03;96334.97;;;25.10
50206;BMP280;36098;48.390;10.856;2023-09-08T02:55:28;96337.31;;;25.16
50206;BMP280;36098;48.390;10.856;2023-09-08T02:57:54;96333.91;;;25.16
50206;BMP280;36098;48.390;10.856;2023-09-08T03:00:20;96337.59;;;25.15
50206;BMP280;36098;48.390;10.856;2023-09-08T03:02:45;96336.78;;;25.14
50206;BMP280;36098;48.390;10.856;2023-09-08T03:05:11;96346.03;;;25.17
50206;BMP280;36098;48.390;10.856;2023-09-08T03:07:36;96340.75;;;25.17
50206;BMP280;36098;48.390;10.856;2023-09-08T03:10:03;96342.88;;;25.15
50206;BMP280;36098;48.390;10.856;2023-09-08T03:12:29;96331.81;;;25.08
50206;BMP280;36098;48.390;10.856;2023-09-08T03:14:55;96339.25;;;25.06
50206;BMP280;36098;48.390;10.856;2023-09-08T03:17:20;96337.09;;;25.08
50206;BMP280;36098;48.390;10.856;2023-09-08T03:22:11;96332.13;;;25.07
50206;BMP280;36098;48.390;10.856;2023-09-08T03:24:36;96331.25;;;25.11
50206;BMP280;36098;48.390;10.856;2023-09-08T03:27:02;96330.50;;;25.11
50206;BMP280;36098;48.390;10.856;2023-09-08T03:29:27;96333.69;;;25.08
50206;BMP280;36098;48.390;10.856;2023-09-08T03:31:52;96339.75;;;25.08
50206;BMP280;36098;48.390;10.856;2023-09-08T03:34:18;96338.94;;;25.13
50206;BMP280;36098;48.390;10.856;2023-09-08T03:36:45;96337.34;;;25.12
50206;BMP280;36098;48.390;10.856;2023-09-08T03:39:10;96336.78;;;25.14
50206;BMP280;36098;48.390;10.856;2023-09-08T03:41:36;96335.78;;;25.11
50206;BMP280;36098;48.390;10.856;2023-09-08T03:44:01;96338.41;;;25.11
50206;BMP280;36098;48.390;10.856;2023-09-08T03:48:51;96334.47;;;25.08
50206;BMP280;36098;48.390;10.856;2023-09-08T03:53:44;96331.25;;;25.11
50206;BMP280;36098;48.390;10.856;2023-09-08T03:56:10;96325.25;;;25.06
50206;BMP280;36098;48.390;10.856;2023-09-08T03:58:35;96332.38;;;25.05
50206;BMP280;36098;48.390;10.856;2023-09-08T04:01:00;96327.34;;;25.09
50206;BMP280;36098;48.390;10.856;2023-09-08T04:03:26;96323.69;;;25.05
50206;BMP280;36098;48.390;10.856;2023-09-08T04:05:51;96326.31;;;25.05
50206;BMP280;36098;48.390;10.856;2023-09-08T04:08:16;96331.31;;;25.06
50206;BMP280;36098;48.390;10.856;2023-09-08T04:10:41;96329.22;;;25.03
50206;BMP280;36098;48.390;10.856;2023-09-08T04:13:07;96330.56;;;25.01
50206;BMP280;36098;48.390;10.856;2023-09-08T04:15:32;96334.00;;;25.01
50206;BMP280;36098;48.390;10.856;2023-09-08T04:17:57;96336.09;;;25.04
50206;BMP280;36098;48.390;10.856;2023-09-08T04:20:23;96340.00;;;25.12
50206;BMP280;36098;48.390;10.856;2023-09-08T04:22:48;96340.81;;;25.07
50206;BMP280;36098;48.390;10.856;2023-09-08T04:25:13;96346.66;;;25.04
50206;BMP280;36098;48.390;10.856;2023-09-08T04:27:38;96343.22;;;25.04
50206;BMP280;36098;48.390;10.856;2023-09-08T04:30:05;96341.38;;;25.04
50206;BMP280;36098;48.390;10.856;2023-09-08T04:32:31;96347.47;;;25.05
50206;BMP280;36098;48.390;10.856;2023-09-08T04:34:56;96344.28;;;25.03
50206;BMP280;36098;48.390;10.856;2023-09-08T04:37:21;96339.53;;;25.00
50206;BMP280;36098;48.390;10.856;2023-09-08T04:39:47;96337.41;;;25.02
50206;BMP280;36098;48.390;10.856;2023-09-08T04:42:12;96335.06;;;25.00
50206;BMP280;36098;48.390;10.856;2023-09-08T04:44:38;96344.06;;;24.99
50206;BMP280;36098;48.390;10.856;2023-09-08T04:47:04;96336.91;;;25.00
50206;BMP280;36098;48.390;10.856;2023-09-08T04:49:29;96346.16;;;25.02
50206;BMP280;36098;48.390;10.856;2023-09-08T04:51:55;96349.56;;;25.03
50206;BMP280;36098;48.390;10.856;2023-09-08T04:54:20;96348.78;;;25.02
50206;BMP280;36098;48.390;10.856;2023-09-08T04:56:46;96354.06;;;25.02
50206;BMP280;36098;48.390;10.856;2023-09-08T04:59:11;96353.00;;;25.03
50206;BMP280;36098;48.390;10.856;2023-09-08T05:01:36;96349.84;;;25.01
50206;BMP280;36098;48.390;10.856;2023-09-08T05:04:03;96350.91;;;25.00
50206;BMP280;36098;48.390;10.856;2023-09-08T05:06:28;96351.44;;;25.02
50206;BMP280;36098;48.390;10.856;2023-09-08T05:08:54;96350.38;;;25.03
50206;BMP280;36098;48.390;10.856;2023-09-08T05:11:19;96356.19;;;25.00
50206;BMP280;36098;48.390;10.856;2023-09-08T05:13:46;96365.19;;;24.99
50206;BMP280;36098;48.390;10.856;2023-09-08T05:16:11;96364.38;;;24.99
50206;BMP280;36098;48.390;10.856;2023-09-08T05:18:40;96369.66;;;24.99
50206;BMP280;36098;48.390;10.856;2023-09-08T05:21:08;96366.25;;;24.98
50206;BMP280;36098;48.390;10.856;2023-09-08T05:23:34;96362.03;;;24.97
50206;BMP280;36098;48.390;10.856;2023-09-08T05:26:00;96359.41;;;24.97
50206;BMP280;36098;48.390;10.856;2023-09-08T05:28:25;96356.75;;;24.97
50206;BMP280;36098;48.390;10.856;2023-09-08T05:30:51;96362.50;;;25.04
50206;BMP280;36098;48.390;10.856;2023-09-08T05:33:16;96365.84;;;25.19
50206;BMP280;36098;48.390;10.856;2023-09-08T05:35:42;96359.09;;;25.42
50206;BMP280;36098;48.390;10.856;2023-09-08T05:38:07;96363.28;;;25.43
50206;BMP280;36098;48.390;10.856;2023-09-08T05:40:34;96372.72;;;25.54
50206;BMP280;36098;48.390;10.856;2023-09-08T05:43:00;96366.88;;;25.57
50206;BMP280;36098;48.390;10.856;2023-09-08T05:45:25;96362.88;;;25.59
50206;BMP280;36098;48.390;10.856;2023-09-08T05:47:51;96373.69;;;25.63
50206;BMP280;36098;48.390;10.856;2023-09-08T05:50:17;96372.38;;;25.60
50206;BMP280;36098;48.390;10.856;2023-09-08T05:52:43;96375.31;;;25.59
50206;BMP280;36098;48.390;10.856;2023-09-08T05:55:08;96371.63;;;25.60
50206;BMP280;36098;48.390;10.856;2023-09-08T05:57:33;96371.63;;;25.60
50206;BMP280;36098;48.390;10.856;2023-09-08T05:59:59;96373.13;;;25.66
50206;BMP280;36098;48.390;10.856;2023-09-08T06:02:25;96374.72;;;25.67
50206;BMP280;36098;48.390;10.856;2023-09-08T06:04:50;96378.25;;;25.57
50206;BMP280;36098;48.390;10.856;2023-09-08T06:07:15;96379.31;;;25.56
50206;BMP280;36098;48.390;10.856;2023-09-08T06:09:41;96378.53;;;25.56
50206;BMP280;36098;48.390;10.856;2023-09-08T06:12:06;96379.25;;;25.61
50206;BMP280;36098;48.390;10.856;2023-09-08T06:14:31;96382.13;;;25.65
50206;BMP280;36098;48.390;10.856;2023-09-08T06:16:57;96378.84;;;25.78
50206;BMP280;36098;48.390;10.856;2023-09-08T06:19:22;96381.97;;;25.85
50206;BMP280;36098;48.390;10.856;2023-09-08T06:21:47;96384.16;;;25.78
50206;BMP280;36098;48.390;10.856;2023-09-08T06:24:12;96381.50;;;25.49
50206;BMP280;36098;48.390;10.856;2023-09-08T06:26:38;96384.97;;;25.45
50206;BMP280;36098;48.390;10.856;2023-09-08T06:29:03;96389.63;;;25.24
50206;BMP280;36098;48.390;10.856;2023-09-08T06:31:28;96384.88;;;25.21
50206;BMP280;36098;48.390;10.856;2023-09-08T06:33:54;96382.31;;;25.07
50206;BMP280;36098;48.390;10.856;2023-09-08T06:36:19;96382.66;;;24.95
50206;BMP280;36098;48.390;10.856;2023-09-08T06:38:44;96383.72;;;24.94
50206;BMP280;36098;48.390;10.856;2023-09-08T06:41:13;96387.47;;;24.83
50206;BMP280;36098;48.390;10.856;2023-09-08T06:43:38;96386.16;;;24.86
50206;BMP280;36098;48.390;10.856;2023-09-08T06:46:04;96388.53;;;24.82
50206;BMP280;36098;48.390;10.856;2023-09-08T06:48:29;96392.28;;;24.76
50206;BMP280;36098;48.390;10.856;2023-09-08T06:50:55;96392.81;;;24.68
50206;BMP280;36098;48.390;10.856;2023-09-08T06:53:22;96405.03;;;24.59
50206;BMP280;36098;48.390;10.856;2023-09-08T06:55:47;96389.97;;;24.65
50206;BMP280;36098;48.390;10.856;2023-09-08T06:58:13;96396.59;;;24.57
50206;BMP280;36098;48.390;10.856;2023-09-08T07:00:39;96399.75;;;24.54
50206;BMP280;36098;48.390;10.856;2023-09-08T07:03:05;96408.72;;;24.53
50206;BMP280;36098;48.390;10.856;2023-09-08T07:05:30;96406.56;;;24.65
50206;BMP280;36098;48.390;10.856;2023-09-08T07:07:56;96401.03;;;24.67
50206;BMP280;36098;48.390;10.856;2023-09-08T07:10:21;96406.56;;;24.65
50206;BMP280;36098;48.390;10.856;2023-09-08T07:12:46;96400.81;;;24.58
50206;BMP280;36098;48.390;10.856;2023-09-08T07:15:13;96402.66;;;24.58
50206;BMP280;36098;48.390;10.856;2023-09-08T07:17:38;96403.44;;;24.53
50206;BMP280;36098;48.390;10.856;2023-09-08T07:20:04;96397.09;;;24.54
50206;BMP280;36098;48.390;10.856;2023-09-08T07:22:29;96394.94;;;24.66
50206;BMP280;36098;48.390;10.856;2023-09-08T07:24:55;96393.91;;;24.62
50206;BMP280;36098;48.390;10.856;2023-09-08T07:27:20;96406.34;;;24.57
50206;BMP280;36098;48.390;10.856;2023-09-08T07:29:45;96398.72;;;24.45
50206;BMP280;36098;48.390;10.856;2023-09-08T07:32:13;96410.03;;;24.51
50206;BMP280;36098;48.390;10.856;2023-09-08T07:34:38;96411.38;;;24.58
50206;BMP280;36098;48.390;10.856;2023-09-08T07:37:03;96403.97;;;24.60
50206;BMP280;36098;48.390;10.856;2023-09-08T07:39:29;96409.53;;;24.49
50206;BMP280;36098;48.390;10.856;2023-09-08T07:41:55;96400.03;;;24.48
50206;BMP280;36098;48.390;10.856;2023-09-08T07:44:21;96405.59;;;24.41
50206;BMP280;36098;48.390;10.856;2023-09-08T07:46:47;96398.16;;;24.53
50206;BMP280;36098;48.390;10.856;2023-09-08T07:49:14;96400.56;;;24.40
50206;BMP280;36098;48.390;10.856;2023-09-08T07:51:40;96402.97;;;24.41
50206;BMP280;36098;48.390;10.856;2023-09-08T07:54:05;96396.06;;;24.45
50206;BMP280;36098;48.390;10.856;2023-09-08T07:56:31;96395.25;;;24.45
50206;BMP280;36098;48.390;10.856;2023-09-08T07:58:57;96394.53;;;24.39
50206;BMP280;36098;48.390;10.856;2023-09-08T08:01:23;96399.22;;;24.47
50206;BMP280;36098;48.390;10.856;2023-09-08T08:03:48;96405.59;;;24.41
50206;BMP280;36098;48.390;10.856;2023-09-08T08:06:14;96398.97;;;24.44
50206;BMP280;36098;48.390;10.856;2023-09-08T08:08:39;96400.88;;;24.38
50206;BMP280;36098;48.390;10.856;2023-09-08T08:11:16;96398.22;;;24.38
50206;BMP280;36098;48.390;10.856;2023-09-08T08:13:43;96400.88;;;24.38
50206;BMP280;36098;48.390;10.856;2023-09-08T08:16:08;96402.19;;;24.36
50206;BMP280;36098;48.390;10.856;2023-09-08T08:18:33;96398.97;;;24.54
50206;BMP280;36098;48.390;10.856;2023-09-08T08:20:58;96404.50;;;24.47
50206;BMP280;36098;48.390;10.856;2023-09-08T08:23:25;96392.09;;;24.43
50206;BMP280;36098;48.390;10.856;2023-09-08T08:25:51;96404.50;;;24.47
50206;BMP280;36098;48.390;10.856;2023-09-08T08:28:16;96395.25;;;24.45
50206;BMP280;36098;48.390;10.856;2023-09-08T08:30:42;96398.47;;;24.47
50206;BMP280;36098;48.390;10.856;2023-09-08T08:33:07;96396.13;;;24.35
50206;BMP280;36098;48.390;10.856;2023-09-08T08:35:32;96402.47;;;24.29
50206;BMP280;36098;48.390;10.856;2023-09-08T08:37:58;96399.28;;;24.32
50206;BMP280;36098;48.390;10.856;2023-09-08T08:40:23;96390.06;;;24.30
50206;BMP280;36098;48.390;10.856;2023-09-08T08:42:55;96391.34;;;24.32
50206;BMP280;36098;48.390;10.856;2023-09-08T08:45:25;96393.19;;;24.37
50206;BMP280;36098;48.390;10.856;2023-09-08T08:47:52;96387.91;;;24.37
50206;BMP280;36098;48.390;10.856;2023-09-08T08:50:18;96389.03;;;24.21
50206;BMP280;36098;48.390;10.856;2023-09-08T08:52:44;96391.66;;;24.26
50206;BMP280;36098;48.390;10.856;2023-09-08T08:55:09;96390.84;;;24.35
50206;BMP280;36098;48.390;10.856;2023-09-08T08:57:39;96385.81;;;24.34
50206;BMP280;36098;48.390;10.856;2023-09-08T09:00:06;96391.34;;;24.32
50206;BMP280;36098;48.390;10.856;2023-09-08T09:02:36;96386.09;;;24.37
50206;BMP280;36098;48.390;10.856;2023-09-08T09:05:02;96385.53;;;24.40
50206;BMP280;36098;48.390;10.856;2023-09-08T09:07:28;96378.09;;;24.57
50206;BMP280;36098;48.390;10.856;2023-09-08T09:09:54;96370.72;;;24.59
50206;BMP280;36098;48.390;10.856;2023-09-08T09:12:19;96375.41;;;24.67
50206;BMP280;36098;48.390;10.856;2023-09-08T09:14:46;96377.03;;;24.53
50206;BMP280;36098;48.390;10.856;2023-09-08T09:17:15;96379.81;;;24.82
50206;BMP280;36098;48.390;10.856;2023-09-08T09:19:41;96373.78;;;24.76
50206;BMP280;36098;48.390;10.856;2023-09-08T09:22:06;96369.44;;;24.95
50206;BMP280;36098;48.390;10.856;2023-09-08T09:24:34;96375.81;;;24.94
50206;BMP280;36098;48.390;10.856;2023-09-08T09:27:00;96376.19;;;24.73
50206;BMP280;36098;48.390;10.856;2023-09-08T09:29:29;96372.09;;;24.90
50206;BMP280;36098;48.390;10.856;2023-09-08T09:31:56;96374.69;;;25.00
50206;BMP280;36098;48.390;10.856;2023-09-08T09:34:23;96373.41;;;24.93
50206;BMP280;36098;48.390;10.856;2023-09-08T09:36:49;96375.59;;;24.86
50206;BMP280;36098;48.390;10.856;2023-09-08T09:39:22;96373.06;;;25.04
50206;BMP280;36098;48.390;10.856;2023-09-08T09:41:49;96371.53;;;24.98
50206;BMP280;36098;48.390;10.856;2023-09-08T09:44:15;96373.88;;;25.05
50206;BMP280;36098;48.390;10.856;2023-09-08T09:46:45;96361.69;;;25.04
50206;BMP280;36098;48.390;10.856;2023-09-08T09:49:15;96361.19;;;25.07
50206;BMP280;36098;48.390;10.856;2023-09-08T09:51:46;96360.84;;;25.13
50206;BMP280;36098;48.390;10.856;2023-09-08T09:54:12;96356.66;;;25.07
50206;BMP280;36098;48.390;10.856;2023-09-08T09:56:39;96363.72;;;25.21
50206;BMP280;36098;48.390;10.856;2023-09-08T09:59:07;96363.22;;;25.19
50206;BMP280;36098;48.390;10.856;2023-09-08T10:01:33;96359.56;;;25.11
50206;BMP280;36098;48.390;10.856;2023-09-08T10:03:59;96357.09;;;25.24
50206;BMP280;36098;48.390;10.856;2023-09-08T10:06:25;96361.97;;;25.45
50206;BMP280;36098;48.390;10.856;2023-09-08T10:08:51;96360.91;;;25.46
50206;BMP280;36098;48.390;10.856;2023-09-08T10:11:20;96359.63;;;25.39
50206;BMP280;36098;48.390;10.856;2023-09-08T10:13:46;96360.66;;;25.43
50206;BMP280;36098;48.390;10.856;2023-09-08T10:16:16;96364.25;;;25.52
50206;BMP280;36098;48.390;10.856;2023-09-08T10:18:45;96363.50;;;25.51
50206;BMP280;36098;48.390;10.856;2023-09-08T10:21:12;96365.78;;;25.63
50206;BMP280;36098;48.390;10.856;2023-09-08T10:23:44;96363.69;;;25.60
50206;BMP280;36098;48.390;10.856;2023-09-08T10:26:16;96356.69;;;25.74
50206;BMP280;36098;48.390;10.856;2023-09-08T10:28:43;96353.16;;;25.83
50206;BMP280;36098;48.390;10.856;2023-09-08T10:31:09;96348.84;;;25.92
50206;BMP280;36098;48.390;10.856;2023-09-08T10:33:35;96352.31;;;25.88
50206;BMP280;36098;48.390;10.856;2023-09-08T10:36:02;96343.66;;;26.06
50206;BMP280;36098;48.390;10.856;2023-09-08T10:38:33;96346.59;;;26.04
50206;BMP280;36098;48.390;10.856;2023-09-08T10:44:02;96345.56;;;26.24
50206;BMP280;36098;48.390;10.856;2023-09-08T10:46:31;96345.16;;;26.12
50206;BMP280;36098;48.390;10.856;2023-09-08T10:49:04;96349.94;;;26.15
50206;BMP280;36098;48.390;10.856;2023-09-08T10:51:32;96345.91;;;26.17
50206;BMP280;36098;48.390;10.856;2023-09-08T10:53:58;96341.50;;;26.31
50206;BMP280;36098;48.390;10.856;2023-09-08T10:56:47;96336.97;;;26.37
50206;BMP280;36098;48.390;10.856;2023-09-08T10:59:15;96335.41;;;26.31
50206;BMP280;36098;48.390;10.856;2023-09-08T11:01:41;96332.66;;;26.41
50206;BMP280;36098;48.390;10.856;2023-09-08T11:04:07;96328.28;;;26.55
50206;BMP280;36098;48.390;10.856;2023-09-08T11:06:34;96331.19;;;26.53
50206;BMP280;36098;48.390;10.856;2023-09-08T11:09:06;96334.66;;;26.54
50206;BMP280;36098;48.390;10.856;2023-09-08T11:11:33;96333.50;;;26.60
50206;BMP280;36098;48.390;10.856;2023-09-08T11:13:58;96331.34;;;26.62
50206;BMP280;36098;48.390;10.856;2023-09-08T11:16:24;96332.81;;;26.73
50206;BMP280;36098;48.390;10.856;2023-09-08T11:18:54;96335.94;;;26.75
50206;BMP280;36098;48.390;10.856;2023-09-08T11:21:19;96344.16;;;26.73
50206;BMP280;36098;48.390;10.856;2023-09-08T11:23:45;96330.66;;;26.75
50206;BMP280;36098;48.390;10.856;2023-09-08T11:26:12;96337.94;;;26.83
50206;BMP280;36098;48.390;10.856;2023-09-08T11:28:37;96336.94;;;26.97
50206;BMP280;36098;48.390;10.856;2023-09-08T11:31:02;96336.25;;;26.92
50206;BMP280;36098;48.390;10.856;2023-09-08T11:33:33;96337.06;;;27.05
50206;BMP280;36098;48.390;10.856;2023-09-08T11:35:59;96338.75;;;27.20
50206;BMP280;36098;48.390;10.856;2023-09-08T11:38:25;96338.81;;;27.15
50206;BMP280;36098;48.390;10.856;2023-09-08T11:40:52;96331.34;;;27.35
50206;BMP280;36098;48.390;10.856;2023-09-08T11:43:18;96331.47;;;27.25
50206;BMP280;36098;48.390;10.856;2023-09-08T11:45:44;96331.84;;;27.19
50206;BMP280;36098;48.390;10.856;2023-09-08T11:48:09;96326.75;;;27.22
50206;BMP280;36098;48.390;10.856;2023-09-08T11:50:35;96333.50;;;27.33
50206;BMP280;36098;48.390;10.856;2023-09-08T11:53:00;96328.56;;;27.27
50206;BMP280;36098;48.390;10.856;2023-09-08T11:55:27;96332.41;;;27.34
50206;BMP280;36098;48.390;10.856;2023-09-08T11:57:53;96329.00;;;27.47
50206;BMP280;36098;48.390;10.856;2023-09-08T12:00:22;96324.69;;;27.51
50206;BMP280;36098;48.390;10.856;2023-09-08T12:02:49;96328.09;;;27.70
50206;BMP280;36098;48.390;10.856;2023-09-08T12:05:25;96331.00;;;27.69
50206;BMP280;36098;48.390;10.856;2023-09-08T12:07:51;96331.88;;;27.64
50206;BMP280;36098;48.390;10.856;2023-09-08T12:10:17;96325.72;;;27.69
50206;BMP280;36098;48.390;10.856;2023-09-08T12:12:54;96323.34;;;27.67
50206;BMP280;36098;48.390;10.856;2023-09-08T12:15:33;96326.63;;;27.78
50206;BMP280;36098;48.390;10.856;2023-09-08T12:18:04;96335.38;;;27.78
50206;BMP280;36098;48.390;10.856;2023-09-08T12:20:30;96320.28;;;27.92
50206;BMP280;36098;48.390;10.856;2023-09-08T12:25:23;96321.63;;;28.03
50206;BMP280;36098;48.390;10.856;2023-09-08T12:27:50;96317.63;;;27.92
50206;BMP280;36098;48.390;10.856;2023-09-08T12:30:18;96309.25;;;27.85
50206;BMP280;36098;48.390;10.856;2023-09-08T12:32:48;96303.97;;;27.99
50206;BMP280;36098;48.390;10.856;2023-09-08T12:35:20;96304.56;;;28.09
50206;BMP280;36098;48.390;10.856;2023-09-08T12:37:46;96307.69;;;28.11
50206;BMP280;36098;48.390;10.856;2023-09-08T12:40:12;96301.19;;;28.17
50206;BMP280;36098;48.390;10.856;2023-09-08T12:42:37;96306.88;;;28.24
50206;BMP280;36098;48.390;10.856;2023-09-08T12:45:03;96296.09;;;28.34
50206;BMP280;36098;48.390;10.856;2023-09-08T12:47:28;96293.13;;;28.36
50206;BMP280;36098;48.390;10.856;2023-09-08T12:49:53;96287.63;;;28.32
50206;BMP280;36098;48.390;10.856;2023-09-08T12:52:20;96290.06;;;28.29
50206;BMP280;36098;48.390;10.856;2023-09-08T12:54:46;96287.63;;;28.32
50206;BMP280;36098;48.390;10.856;2023-09-08T12:57:11;96290.66;;;28.39
50206;BMP280;36098;48.390;10.856;2023-09-08T12:59:36;96289.78;;;28.44
50206;BMP280;36098;48.390;10.856;2023-09-08T13:02:01;96280.25;;;28.43
50206;BMP280;36098;48.390;10.856;2023-09-08T13:04:27;96279.72;;;28.54
50206;BMP280;36098;48.390;10.856;2023-09-08T13:06:52;96286.13;;;28.53
50206;BMP280;36098;48.390;10.856;2023-09-08T13:09:17;96288.38;;;28.60
50206;BMP280;36098;48.390;10.856;2023-09-08T13:11:43;96276.81;;;28.64
50206;BMP280;36098;48.390;10.856;2023-09-08T13:14:08;96270.91;;;28.67
50206;BMP280;36098;48.390;10.856;2023-09-08T13:16:33;96275.03;;;28.73
50206;BMP280;36098;48.390;10.856;2023-09-08T13:18:59;96276.50;;;28.79
50206;BMP280;36098;48.390;10.856;2023-09-08T13:21:25;96275.66;;;28.70
50206;BMP280;36098;48.390;10.856;2023-09-08T13:23:50;96268.75;;;28.69
50206;BMP280;36098;48.390;10.856;2023-09-08T13:26:15;96260.34;;;28.76
50206;BMP280;36098;48.390;10.856;2023-09-08T13:28:41;96263.53;;;28.78
50206;BMP280;36098;48.390;10.856;2023-09-08T13:31:06;96259.13;;;28.95
50206;BMP280;36098;48.390;10.856;2023-09-08T13:33:32;96265.22;;;28.96
50206;BMP280;36098;48.390;10.856;2023-09-08T13:35:57;96256.97;;;28.97
50206;BMP280;36098;48.390;10.856;2023-09-08T13:38:22;96259.56;;;28.89
50206;BMP280;36098;48.390;10.856;2023-09-08T13:40:47;96260.41;;;28.98
50206;BMP280;36098;48.390;10.856;2023-09-08T13:43:13;96251.66;;;28.97
50206;BMP280;36098;48.390;10.856;2023-09-08T13:45:39;96255.41;;;28.96
50206;BMP280;36098;48.390;10.856;2023-09-08T13:48:04;96252.25;;;28.94
50206;BMP280;36098;48.390;10.856;2023-09-08T13:50:31;96246.88;;;29.07
50206;BMP280;36098;48.390;10.856;2023-09-08T13:52:56;96247.41;;;28.96
50206;BMP280;36098;48.390;10.856;2023-09-08T13:55:22;96244.34;;;29.02
50206;BMP280;36098;48.390;10.856;2023-09-08T13:57:49;96240.94;;;29.10
50206;BMP280;36098;48.390;10.856;2023-09-08T14:00:15;96246.44;;;29.14
50206;BMP280;36098;48.390;10.856;2023-09-08T14:02:41;96243.22;;;29.25
50206;BMP280;36098;48.390;10.856;2023-09-08T14:05:07;96240.75;;;29.29
50206;BMP280;36098;48.390;10.856;2023-09-08T14:07:32;96231.44;;;29.18